createdAt,value
2018-12-21T00:01:00.000Z,0.1
2018-12-21T00:06:00.000Z,0.1
2018-12-21T00:11:00.000Z,0.1
2018-12-21T00:16:00.000Z,0.2
2018-12-21T00:21:00.000Z,0.2
2018-12-21T00:26:00.000Z,0.1
2018-12-21T00:31:00.000Z,0.1
2018-12-21T00:36:00.000Z,0.1
2018-12-21T00:41:00.000Z,0.1
2018-12-21T00:46:00.000Z,0.1
2018-12-21T00:51:00.000Z,0.1
2018-12-21T00:56:00.000Z,0.2
2018-12-21T01:01:00.000Z,0.2
2018-12-21T01:06:00.000Z,0.1
2018-12-21T01:11:00.000Z,0.1
2018-12-21T01:16:00.000Z,0.1
2018-12-21T01:21:00.000Z,0.0
2018-12-21T01:26:00.000Z,0.0
2018-12-21T01:31:00.000Z,0.1
2018-12-21T01:36:00.000Z,0.1
2018-12-21T01:41:00.000Z,0.1
2018-12-21T01:46:00.000Z,0.1
2018-12-21T01:51:00.000Z,0.1
2018-12-21T01:56:00.000Z,0.0
2018-12-21T02:01:00.000Z,-0.1
2018-12-21T02:06:00.000Z,-0.1
2018-12-21T02:11:00.000Z,0.1
2018-12-21T02:16:00.000Z,0.1
2018-12-21T02:21:00.000Z,0.1
2018-12-21T02:26:00.000Z,0.1
2018-12-21T02:31:00.000Z,0.2
2018-12-21T02:36:00.000Z,0.2
2018-12-21T02:41:00.000Z,0.2
2018-12-21T02:46:00.000Z,0.1
2018-12-21T02:52:00.000Z,0.1
2018-12-21T02:57:00.000Z,0.1
2018-12-21T03:02:00.000Z,0.0
2018-12-21T03:07:00.000Z,0.0
2018-12-21T03:12:00.000Z,-0.1
2018-12-21T03:17:00.000Z,-0.1
2018-12-21T03:22:00.000Z,-0.1
2018-12-21T03:27:00.000Z,-0.2
2018-12-21T03:32:00.000Z,-0.2
2018-12-21T03:37:00.000Z,-0.2
2018-12-21T03:42:00.000Z,-0.1
2018-12-21T03:47:00.000Z,-0.0
2018-12-21T03:52:00.000Z,0.0
2018-12-21T03:57:00.000Z,0.1
2018-12-21T04:02:00.000Z,0.1
2018-12-21T04:07:00.000Z,0.2
2018-12-21T04:12:00.000Z,0.2
2018-12-21T04:17:00.000Z,0.3
2018-12-21T04:22:00.000Z,0.2
2018-12-21T04:27:00.000Z,0.1
2018-12-21T04:32:00.000Z,0.1
2018-12-21T04:37:00.000Z,0.0
2018-12-21T04:42:00.000Z,0.0
2018-12-21T04:47:00.000Z,0.1
2018-12-21T04:52:00.000Z,0.1
2018-12-21T04:57:00.000Z,-0.0
2018-12-21T05:02:00.000Z,-0.2
2018-12-21T05:07:00.000Z,-0.4
2018-12-21T05:12:00.000Z,-0.3
2018-12-21T05:17:00.000Z,-0.2
2018-12-21T05:22:00.000Z,-0.1
2018-12-21T05:27:00.000Z,-0.0
2018-12-21T05:32:00.000Z,0.0
2018-12-21T05:37:00.000Z,0.0
2018-12-21T05:42:00.000Z,0.1
2018-12-21T05:47:00.000Z,0.1
2018-12-21T05:52:00.000Z,0.1
2018-12-21T05:58:00.000Z,0.0
2018-12-21T06:03:00.000Z,0.1
2018-12-21T06:08:00.000Z,0.1
2018-12-21T06:13:00.000Z,0.2
2018-12-21T06:18:00.000Z,0.1
2018-12-21T06:23:00.000Z,0.1
2018-12-21T06:28:00.000Z,0.1
2018-12-21T06:33:00.000Z,0.2
2018-12-21T06:38:00.000Z,0.2
2018-12-21T06:43:00.000Z,0.2
2018-12-21T06:48:00.000Z,0.2
2018-12-21T06:53:00.000Z,0.3
2018-12-21T06:58:00.000Z,0.3
2018-12-21T07:03:00.000Z,0.3
2018-12-21T07:08:00.000Z,0.3
2018-12-21T07:13:00.000Z,0.3
2018-12-21T07:18:00.000Z,0.4
2018-12-21T07:23:00.000Z,0.4
2018-12-21T07:28:00.000Z,0.4
2018-12-21T07:33:00.000Z,0.5
2018-12-21T07:38:00.000Z,0.6
2018-12-21T07:43:00.000Z,0.6
2018-12-21T07:48:00.000Z,0.7
2018-12-21T07:53:00.000Z,0.6
2018-12-21T07:58:00.000Z,0.5
2018-12-21T08:03:00.000Z,0.4
2018-12-21T08:08:00.000Z,0.4
2018-12-21T08:13:00.000Z,0.5
2018-12-21T08:18:00.000Z,0.5
2018-12-21T08:23:00.000Z,0.6
2018-12-21T08:28:00.000Z,0.7
2018-12-21T08:33:00.000Z,0.7
2018-12-21T08:38:00.000Z,0.6
2018-12-21T08:43:00.000Z,0.6
2018-12-21T08:48:00.000Z,0.6
2018-12-21T08:53:00.000Z,0.7
2018-12-21T08:58:00.000Z,0.8
2018-12-21T09:03:00.000Z,0.9
2018-12-21T09:08:00.000Z,1.1
2018-12-21T09:13:00.000Z,1.3
2018-12-21T09:18:00.000Z,1.4
2018-12-21T09:23:00.000Z,1.6
2018-12-21T09:29:00.000Z,1.9
2018-12-21T09:34:00.000Z,2.0
2018-12-21T09:39:00.000Z,2.1
2018-12-21T09:44:00.000Z,2.1
2018-12-21T09:49:00.000Z,2.1
2018-12-21T09:54:00.000Z,2.1
2018-12-21T09:59:00.000Z,2.1
2018-12-21T10:04:00.000Z,2.1
2018-12-21T10:09:00.000Z,2.2
2018-12-21T10:14:00.000Z,2.2
2018-12-21T10:19:00.000Z,2.3
2018-12-21T10:24:00.000Z,2.3
2018-12-21T10:29:00.000Z,2.3
2018-12-21T10:34:00.000Z,2.2
2018-12-21T10:39:00.000Z,2.1
2018-12-21T10:44:00.000Z,2.1
2018-12-21T10:49:00.000Z,2.1
2018-12-21T10:54:00.000Z,2.0
2018-12-21T10:59:00.000Z,2.1
2018-12-21T11:04:00.000Z,2.0
2018-12-21T11:09:00.000Z,2.0
2018-12-21T11:14:00.000Z,2.0
2018-12-21T11:19:00.000Z,1.9
2018-12-21T11:24:00.000Z,1.9
2018-12-21T11:29:00.000Z,1.9
2018-12-21T11:34:00.000Z,2.0
2018-12-21T11:39:00.000Z,2.0
2018-12-21T11:44:00.000Z,2.0
2018-12-21T11:49:00.000Z,1.9
2018-12-21T11:54:00.000Z,2.1
2018-12-21T11:59:00.000Z,2.1
2018-12-21T12:04:00.000Z,2.1
2018-12-21T12:09:00.000Z,2.1
2018-12-21T12:14:00.000Z,2.1
2018-12-21T12:19:00.000Z,2.2
2018-12-21T12:24:00.000Z,2.1
2018-12-21T12:29:00.000Z,2.1
2018-12-21T12:34:00.000Z,2.1
2018-12-21T12:39:00.000Z,2.1
2018-12-21T12:44:00.000Z,2.2
2018-12-21T12:49:00.000Z,2.3
2018-12-21T12:54:00.000Z,2.4
2018-12-21T13:00:00.000Z,2.5
2018-12-21T13:05:00.000Z,2.5
2018-12-21T13:10:00.000Z,2.5
2018-12-21T13:15:00.000Z,2.5
2018-12-21T13:20:00.000Z,2.6
2018-12-21T13:25:00.000Z,2.5
2018-12-21T13:30:00.000Z,2.6
2018-12-21T13:35:00.000Z,2.6
2018-12-21T13:40:00.000Z,2.5
2018-12-21T13:45:00.000Z,2.4
2018-12-21T13:50:00.000Z,2.3
2018-12-21T13:55:00.000Z,2.3
2018-12-21T14:00:00.000Z,2.3
2018-12-21T14:05:00.000Z,2.3
2018-12-21T14:10:00.000Z,2.3
2018-12-21T14:15:00.000Z,2.4
2018-12-21T14:20:00.000Z,2.4
2018-12-21T14:25:00.000Z,2.4
2018-12-21T14:30:00.000Z,2.3
2018-12-21T14:35:00.000Z,2.3
2018-12-21T14:40:00.000Z,2.2
2018-12-21T14:45:00.000Z,2.1
2018-12-21T14:50:00.000Z,2.2
2018-12-21T14:55:00.000Z,2.2
2018-12-21T15:00:00.000Z,2.2
2018-12-21T15:05:00.000Z,2.2
2018-12-21T15:10:00.000Z,2.3
2018-12-21T15:15:00.000Z,2.2
2018-12-21T15:20:00.000Z,2.2
2018-12-21T15:25:00.000Z,2.2
2018-12-21T15:30:00.000Z,2.1
2018-12-21T15:35:00.000Z,2.1
2018-12-21T15:40:00.000Z,2.1
2018-12-21T15:45:00.000Z,2.1
2018-12-21T15:50:00.000Z,2.2
2018-12-21T15:55:00.000Z,2.2
2018-12-21T16:00:00.000Z,2.2
2018-12-21T16:05:00.000Z,2.3
2018-12-21T16:10:00.000Z,2.3
2018-12-21T16:15:00.000Z,2.4
2018-12-21T16:20:00.000Z,2.3
2018-12-21T16:25:00.000Z,2.3
2018-12-21T16:31:00.000Z,2.4
2018-12-21T16:36:00.000Z,2.4
2018-12-21T16:41:00.000Z,2.4
2018-12-21T16:46:00.000Z,2.5
2018-12-21T16:51:00.000Z,2.5
2018-12-21T16:56:00.000Z,2.5
2018-12-21T17:01:00.000Z,2.4
2018-12-21T17:06:00.000Z,2.4
2018-12-21T17:11:00.000Z,2.3
2018-12-21T17:16:00.000Z,2.3
2018-12-21T17:21:00.000Z,2.4
2018-12-21T17:26:00.000Z,2.5
2018-12-21T17:31:00.000Z,2.5
2018-12-21T17:36:00.000Z,2.6
2018-12-21T17:41:00.000Z,2.5
2018-12-21T17:46:00.000Z,2.5
2018-12-21T17:51:00.000Z,2.5
2018-12-21T17:56:00.000Z,2.4
2018-12-21T18:01:00.000Z,2.5
2018-12-21T18:06:00.000Z,2.6
2018-12-21T18:11:00.000Z,2.6
2018-12-21T18:16:00.000Z,2.6
2018-12-21T18:21:00.000Z,2.6
2018-12-21T18:26:00.000Z,2.7
2018-12-21T18:31:00.000Z,2.6
2018-12-21T18:36:00.000Z,2.7
2018-12-21T18:41:00.000Z,2.7
2018-12-21T18:46:00.000Z,2.8
2018-12-21T18:51:00.000Z,2.9
2018-12-21T18:56:00.000Z,2.9
2018-12-21T19:01:00.000Z,3.0
2018-12-21T19:06:00.000Z,3.0
2018-12-21T19:11:00.000Z,2.9
2018-12-21T19:16:00.000Z,2.9
2018-12-21T19:21:00.000Z,2.9
2018-12-21T19:26:00.000Z,2.9
2018-12-21T19:31:00.000Z,2.9
2018-12-21T19:36:00.000Z,3.0
2018-12-21T19:41:00.000Z,3.0
2018-12-21T19:46:00.000Z,3.0
2018-12-21T19:52:00.000Z,3.0
2018-12-21T19:57:00.000Z,3.0
2018-12-21T20:02:00.000Z,2.9
2018-12-21T20:07:00.000Z,2.8
2018-12-21T20:12:00.000Z,2.7
2018-12-21T20:17:00.000Z,2.7
2018-12-21T20:22:00.000Z,2.6
2018-12-21T20:27:00.000Z,2.4
2018-12-21T20:32:00.000Z,2.4
2018-12-21T20:37:00.000Z,2.4
2018-12-21T20:42:00.000Z,2.4
2018-12-21T20:47:00.000Z,2.5
2018-12-21T20:52:00.000Z,2.6
2018-12-21T20:57:00.000Z,2.5
2018-12-21T21:02:00.000Z,2.4
2018-12-21T21:07:00.000Z,2.4
2018-12-21T21:12:00.000Z,2.4
2018-12-21T21:17:00.000Z,2.5
2018-12-21T21:22:00.000Z,2.4
2018-12-21T21:27:00.000Z,2.3
2018-12-21T21:32:00.000Z,2.2
2018-12-21T21:37:00.000Z,2.1
2018-12-21T21:42:00.000Z,2.0
2018-12-21T21:47:00.000Z,2.0
2018-12-21T21:52:00.000Z,1.9
2018-12-21T21:57:00.000Z,1.9
2018-12-21T22:02:00.000Z,1.9
2018-12-21T22:07:00.000Z,1.9
2018-12-21T22:12:00.000Z,2.0
2018-12-21T22:17:00.000Z,2.0
2018-12-21T22:22:00.000Z,2.0
2018-12-21T22:27:00.000Z,1.9
2018-12-21T22:32:00.000Z,1.9
2018-12-21T22:37:00.000Z,2.0
2018-12-21T22:42:00.000Z,2.0
2018-12-21T22:47:00.000Z,2.1
2018-12-21T22:52:00.000Z,2.1
2018-12-21T22:57:00.000Z,2.2
2018-12-21T23:02:00.000Z,2.3
2018-12-21T23:07:00.000Z,2.4
2018-12-21T23:12:00.000Z,2.4
2018-12-21T23:17:00.000Z,2.5
2018-12-21T23:23:00.000Z,2.6
2018-12-21T23:28:00.000Z,2.5
2018-12-21T23:33:00.000Z,2.5
2018-12-21T23:38:00.000Z,2.5
2018-12-21T23:43:00.000Z,2.5
2018-12-21T23:48:00.000Z,2.4
2018-12-21T23:53:00.000Z,2.4
2018-12-21T23:58:00.000Z,2.3
